Time;durP1;ratioP1;P1;durP2;ratioP2;P2;SDS_P1;SDS_P2;PMS_P1;PMS_P2;Temp;Humidity;BMP_temperature;BMP_pressure;BME280_temperature;BME280_humidity;BME280_pressure;Samples;Min_cycle;Max_cycle;Signal;HPM_P1;HPM_P2
2022/04/28 00:00:56;;;;;;;18.75;11.63;;;;;;;8.29;66.33;99943.53;5263805;28;20062;-68
2022/04/28 00:03:46;;;;;;;17.58;11.95;;;;;;;8.28;65.63;99954.19;5264668;28;20132;-69
2022/04/28 00:06:36;;;;;;;14.55;10.38;;;;;;;8.10;65.84;99932.53;5268245;28;20447;-69
2022/04/28 00:09:27;;;;;;;16.77;10.88;;;;;;;8.22;66.62;99943.13;5267867;28;20059;-68
2022/04/28 00:12:17;;;;;;;19.35;11.73;;;;;;;8.18;66.79;99961.94;5246602;28;20056;-67
2022/04/28 00:15:08;;;;;;;15.48;11.30;;;;;;;8.39;67.45;99964.94;5260605;28;20421;-68
2022/04/28 00:17:58;;;;;;;20.70;12.15;;;;;;;8.22;67.04;99955.50;5267785;28;20502;-69
2022/04/28 00:20:48;;;;;;;17.98;12.05;;;;;;;8.19;66.33;99961.81;5267189;28;20055;-71
2022/04/28 00:23:38;;;;;;;17.73;11.82;;;;;;;8.07;67.04;99959.16;5267630;28;20078;-68
2022/04/28 00:26:28;;;;;;;18.80;12.18;;;;;;;8.10;67.26;99948.41;5267737;28;20160;-67
2022/04/28 00:29:18;;;;;;;18.55;12.27;;;;;;;7.99;66.90;99963.19;5267798;28;20052;-67
2022/04/28 00:32:09;;;;;;;16.65;11.68;;;;;;;7.95;66.75;99961.69;5266158;28;20109;-68
2022/04/28 00:34:59;;;;;;;18.58;11.55;;;;;;;7.91;66.55;99962.00;5267576;28;20074;-68
2022/04/28 00:37:49;;;;;;;20.02;12.52;;;;;;;7.98;67.00;99958.84;5267461;28;20125;-67
2022/04/28 00:40:39;;;;;;;17.08;12.15;;;;;;;7.96;67.85;99954.63;5266637;28;20192;-67
2022/04/28 00:43:30;;;;;;;18.40;12.70;;;;;;;8.01;67.34;99963.06;5266883;28;20090;-67
2022/04/28 00:46:21;;;;;;;17.80;12.75;;;;;;;7.98;67.62;99955.38;5266051;28;20713;-69
2022/04/28 00:52:21;;;;;;;18.42;12.32;;;;;;;7.79;67.82;99963.69;5265712;28;20048;-68
2022/04/28 00:55:12;;;;;;;19.27;12.98;;;;;;;7.81;68.05;99968.84;5266164;28;20090;-68
2022/04/28 00:58:02;;;;;;;24.38;13.77;;;;;;;7.99;67.76;99967.63;5266975;28;20063;-68
2022/04/28 01:00:53;;;;;;;24.60;14.07;;;;;;;7.93;68.12;99973.31;5265585;28;20106;-68
2022/04/28 01:03:45;;;;;;;23.25;13.90;;;;;;;7.80;67.43;99962.72;5266764;28;20145;-68
2022/04/28 01:06:39;;;;;;;18.65;13.63;;;;;;;7.74;68.76;99963.97;5245068;28;20094;-68
2022/04/28 01:09:30;;;;;;;17.42;12.98;;;;;;;7.75;67.99;99970.13;5245039;28;20060;-69
2022/04/28 01:12:21;;;;;;;21.23;13.70;;;;;;;7.66;68.07;99971.56;5244317;28;20055;-69
2022/04/28 01:15:17;;;;;;;20.13;13.10;;;;;;;7.63;68.47;99976.19;5244461;28;20052;-68
2022/04/28 01:18:07;;;;;;;19.95;14.05;;;;;;;7.80;68.39;99965.34;5247877;28;20099;-68
2022/04/28 01:21:03;;;;;;;18.40;13.20;;;;;;;7.80;67.76;99961.88;5264778;28;20122;-67
2022/04/28 01:23:55;;;;;;;21.45;13.88;;;;;;;7.68;68.85;99972.31;5265287;28;20055;-68
2022/04/28 01:26:48;;;;;;;20.10;13.73;;;;;;;7.45;67.86;99972.94;5266414;28;20532;-70
2022/04/28 01:29:38;;;;;;;24.20;13.82;;;;;;;7.35;68.92;99971.84;5266374;28;20052;-69
2022/04/28 01:32:28;;;;;;;17.50;13.32;;;;;;;7.37;67.94;99973.47;5264938;28;20416;-68
2022/04/28 01:35:19;;;;;;;20.20;14.27;;;;;;;7.43;68.58;99970.44;5264924;28;20051;-67
2022/04/28 01:38:10;;;;;;;23.20;13.55;;;;;;;7.44;68.61;99956.28;5265268;28;20692;-68
2022/04/28 01:41:00;;;;;;;22.05;13.63;;;;;;;7.24;69.31;99962.84;5265670;28;20490;-67
2022/04/28 01:43:51;;;;;;;21.65;15.15;;;;;;;7.34;68.75;99959.63;5251340;28;20125;-67
2022/04/28 01:46:41;;;;;;;19.73;13.57;;;;;;;7.27;68.45;99972.38;5265492;28;20105;-67
2022/04/28 01:49:50;;;;;;;19.30;13.30;;;;;;;7.19;69.30;99966.75;5266384;28;20059;-67
2022/04/28 01:56:20;;;;;;;24.42;14.40;;;;;;;7.16;68.72;99977.50;5264877;28;20059;-68
2022/04/28 01:59:33;;;;;;;22.13;13.55;;;;;;;6.97;68.69;99976.00;5265477;28;20052;-68
2022/04/28 02:02:50;;;;;;;19.65;13.20;;;;;;;6.90;68.38;99964.16;5264591;28;20063;-68
2022/04/28 02:05:41;;;;;;;20.35;13.73;;;;;;;6.89;68.01;99974.78;5263714;28;20067;-68
2022/04/28 02:08:31;;;;;;;19.98;13.82;;;;;;;6.95;68.79;99964.69;5264832;28;20131;-68
2022/04/28 02:11:22;;;;;;;19.35;13.98;;;;;;;7.04;69.34;99974.66;5264113;28;20137;-68
2022/04/28 02:14:32;;;;;;;22.23;14.35;;;;;;;7.04;69.07;99979.94;5265628;28;20113;-68
2022/04/28 02:17:46;;;;;;;23.23;15.52;;;;;;;6.95;68.88;99951.53;5264300;28;20055;-68
2022/04/28 02:20:37;;;;;;;20.42;15.20;;;;;;;6.86;69.41;99973.22;5263563;28;20056;-68
2022/04/28 02:23:28;;;;;;;21.38;14.60;;;;;;;6.74;68.63;99968.69;5250214;28;20051;-68
2022/04/28 02:26:18;;;;;;;21.27;14.23;;;;;;;6.56;68.39;99947.81;5263405;28;20058;-68
2022/04/28 02:29:08;;;;;;;23.38;15.23;;;;;;;6.67;68.31;99976.13;5264218;28;20540;-69
2022/04/28 02:32:02;;;;;;;24.10;15.85;;;;;;;6.86;69.07;99975.84;5256494;28;20071;-68
2022/04/28 02:34:52;;;;;;;26.48;15.60;;;;;;;6.78;69.08;99978.09;5257288;28;20198;-69
2022/04/28 02:37:42;;;;;;;20.70;15.23;;;;;;;6.57;69.18;99975.84;5229213;28;20059;-68
2022/04/28 02:40:33;;;;;;;28.17;16.67;;;;;;;6.65;69.49;99974.53;5243541;28;20056;-68
2022/04/28 02:43:27;;;;;;;;;;;;;;;6.66;69.38;99981.53;5249433;28;20055;-68
2022/04/28 02:46:33;;;;;;;24.70;15.27;;;;;;;6.62;69.30;99970.28;5263959;28;19943;-69
2022/04/28 02:49:26;;;;;;;26.98;15.50;;;;;;;6.52;69.40;99975.31;5263943;28;20054;-68
2022/04/28 02:52:18;;;;;;;20.65;14.63;;;;;;;6.60;69.56;99985.38;5263859;28;20574;-69
2022/04/28 02:55:12;;;;;;;22.15;15.43;;;;;;;6.49;69.32;99983.41;5263895;28;20177;-68
2022/04/28 02:58:03;;;;;;;26.67;16.13;;;;;;;6.48;69.28;99979.06;5264010;28;20050;-69
2022/04/28 03:00:53;;;;;;;22.48;15.52;;;;;;;6.37;69.24;99988.56;5263329;28;20054;-69
2022/04/28 03:03:43;;;;;;;25.00;15.70;;;;;;;6.35;69.48;99993.91;5263690;28;20083;-68
2022/04/28 03:12:56;;;;;;;25.75;17.45;;;;;;;6.51;69.36;99992.03;5242865;28;20102;-68
2022/04/28 03:15:52;;;;;;;25.70;15.90;;;;;;;6.31;68.99;99995.88;5242370;28;20087;-68
2022/04/28 03:18:47;;;;;;;24.73;15.13;;;;;;;6.15;69.29;99995.09;5251863;28;20465;-68
2022/04/28 03:21:37;;;;;;;22.65;14.70;;;;;;;6.08;69.16;99999.03;5263728;28;20055;-69
2022/04/28 03:24:30;;;;;;;23.70;15.48;;;;;;;6.21;69.03;100007.91;5263753;28;20604;-69
2022/04/28 03:27:20;;;;;;;26.42;16.40;;;;;;;6.13;69.54;100007.53;5263671;28;20682;-69
2022/04/28 03:30:11;;;;;;;25.33;15.57;;;;;;;6.05;69.52;100007.97;5263797;28;20128;-69
2022/04/28 03:33:23;;;;;;;26.13;17.60;;;;;;;6.18;69.71;100004.63;5262547;28;20048;-68
2022/04/28 03:39:22;;;;;;;23.35;15.55;;;;;;;6.01;70.11;100010.88;5267713;28;20491;-69
2022/04/28 03:42:12;;;;;;;24.27;17.17;;;;;;;6.15;69.62;100003.00;5266462;28;20050;-68
2022/04/28 03:45:03;;;;;;;25.48;16.85;;;;;;;6.05;69.75;100007.97;5269006;28;20058;-69
2022/04/28 03:47:58;;;;;;;26.10;16.48;;;;;;;5.92;70.02;100006.09;5266944;28;20056;-69
2022/04/28 03:50:48;;;;;;;23.20;14.98;;;;;;;5.86;69.67;100012.56;5266720;28;20050;-67
2022/04/28 03:53:38;;;;;;;22.83;15.68;;;;;;;5.83;69.08;100010.16;5266836;28;20055;-69
2022/04/28 03:56:31;;;;;;;19.75;14.23;;;;;;;5.78;68.97;100013.03;5265480;28;20051;-69
2022/04/28 03:59:27;;;;;;;25.92;16.00;;;;;;;5.77;69.62;100018.38;5246238;28;20059;-68
2022/04/28 04:02:41;;;;;;;23.70;14.85;;;;;;;5.74;69.07;100011.50;5247809;28;20490;-69
2022/04/28 04:05:33;;;;;;;28.65;16.67;;;;;;;5.86;69.60;100029.25;5267100;28;20056;-69
2022/04/28 04:08:23;;;;;;;24.00;16.60;;;;;;;5.95;69.97;100024.41;5267101;28;20055;-69
2022/04/28 04:11:32;;;;;;;29.40;15.73;;;;;;;5.86;69.35;100023.09;5266881;28;20082;-68
2022/04/28 04:14:23;;;;;;;26.17;17.50;;;;;;;5.81;69.32;100006.75;5266634;28;20586;-68
2022/04/28 04:17:14;;;;;;;32.65;19.95;;;;;;;5.98;69.84;100025.06;5266733;28;20055;-68
2022/04/28 04:20:06;;;;;;;24.67;16.77;;;;;;;5.79;69.34;100021.75;5266240;28;20902;-67
2022/04/28 04:22:56;;;;;;;24.17;15.43;;;;;;;5.65;69.16;100015.50;5266850;28;20562;-68
2022/04/28 04:25:47;;;;;;;25.13;15.27;;;;;;;5.55;69.64;100019.59;5266476;28;20062;-68
2022/04/28 04:28:43;;;;;;;21.70;15.23;;;;;;;5.63;68.78;100034.97;5267198;28;20105;-68
2022/04/28 04:35:15;;;;;;;21.02;15.05;;;;;;;5.62;68.83;100033.25;5245610;28;20053;-68
2022/04/28 04:38:10;;;;;;;25.60;16.25;;;;;;;5.71;69.64;100040.63;5245379;28;20433;-68
2022/04/28 04:41:01;;;;;;;26.67;17.58;;;;;;;5.84;70.06;100039.00;5244929;28;20044;-68
2022/04/28 04:43:52;;;;;;;30.00;18.10;;;;;;;5.84;70.08;100043.41;5252366;28;20044;-68
2022/04/28 04:46:44;;;;;;;29.05;18.23;;;;;;;5.64;70.52;100026.97;5266078;28;20048;-66
2022/04/28 04:49:49;;;;;;;29.90;18.85;;;;;;;5.89;70.40;100057.16;5266494;28;20044;-69
2022/04/28 04:52:42;;;;;;;29.95;17.50;;;;;;;5.82;69.47;100063.69;5256146;28;20040;-71
2022/04/28 04:55:39;;;;;;;29.90;17.27;;;;;;;5.88;69.92;100060.72;5266157;28;20417;-67
2022/04/28 04:58:30;;;;;;;34.38;20.05;;;;;;;5.89;70.33;100062.41;5266229;28;20055;-67
2022/04/28 05:01:21;;;;;;;30.05;19.70;;;;;;;6.15;71.25;100055.66;5244917;28;20060;-67
2022/04/28 05:04:37;;;;;;;34.33;19.95;;;;;;;6.18;70.47;100068.66;5245193;28;20546;-67
2022/04/28 05:07:34;;;;;;;30.42;19.50;;;;;;;6.12;70.81;100074.28;5245989;28;20048;-67
2022/04/28 05:10:25;;;;;;;29.40;18.20;;;;;;;6.14;70.21;100087.38;5244224;28;20143;-67
2022/04/28 05:13:16;;;;;;;30.38;18.33;;;;;;;6.15;70.27;100084.63;5245151;28;20044;-67
2022/04/28 05:16:12;;;;;;;31.73;17.45;;;;;;;6.11;69.33;100077.84;5245815;28;20408;-67
2022/04/28 05:19:27;;;;;;;25.98;17.30;;;;;;;6.20;69.61;100092.28;5245348;28;20062;-67
2022/04/28 05:22:26;;;;;;;26.98;16.90;;;;;;;6.28;70.26;100095.31;5245550;28;20526;-67
2022/04/28 05:25:36;;;;;;;27.40;16.55;;;;;;;6.29;70.54;100100.50;5245412;28;20477;-67
2022/04/28 05:28:55;;;;;;;29.98;16.35;;;;;;;6.39;70.55;100106.09;5245351;28;20052;-67
2022/04/28 05:31:57;;;;;;;28.02;16.88;;;;;;;6.44;69.98;100097.91;5245301;28;20161;-67
2022/04/28 05:34:59;;;;;;;32.97;18.73;;;;;;;6.45;70.61;100094.31;5243890;28;20055;-67
2022/04/28 05:37:49;;;;;;;31.38;19.48;;;;;;;6.60;70.56;100111.88;5244177;28;20055;-67
2022/04/28 05:40:41;;;;;;;31.75;19.05;;;;;;;6.71;71.12;100112.06;5243888;28;20157;-67
2022/04/28 05:46:41;;;;;;;32.17;19.90;;;;;;;6.92;71.28;100114.34;5243972;28;20084;-67
2022/04/28 05:49:32;;;;;;;33.28;20.90;;;;;;;6.97;70.95;100104.38;5229609;28;20055;-67
2022/04/28 05:52:23;;;;;;;38.90;22.80;;;;;;;7.23;70.96;100111.53;5243482;28;20492;-67
2022/04/28 05:55:15;;;;;;;39.25;22.05;;;;;;;7.25;70.30;100116.69;5243320;28;20055;-67
2022/04/28 05:58:06;;;;;;;36.40;22.15;;;;;;;7.34;70.76;100121.41;5243610;28;20495;-67
2022/04/28 06:00:58;;;;;;;35.08;22.50;;;;;;;7.41;70.88;100111.31;5243487;28;20127;-67
2022/04/28 06:03:48;;;;;;;40.92;24.55;;;;;;;7.56;71.96;100106.88;5243517;28;20562;-67
2022/04/28 06:06:40;;;;;;;37.55;24.65;;;;;;;7.71;70.98;100124.34;5244026;28;20052;-67
2022/04/28 06:09:51;;;;;;;41.80;24.45;;;;;;;7.85;71.21;100128.78;5244505;28;20098;-67
2022/04/28 06:12:47;;;;;;;44.92;26.50;;;;;;;7.98;71.51;100127.03;5243587;28;20040;-67
2022/04/28 06:15:56;;;;;;;39.17;24.95;;;;;;;8.10;70.97;100130.66;5244315;28;20063;-67
2022/04/28 06:18:54;;;;;;;43.45;25.90;;;;;;;8.15;70.60;100125.94;5243327;28;20091;-67
2022/04/28 06:22:13;;;;;;;39.78;26.48;;;;;;;8.53;70.89;100112.84;5243435;28;20067;-67
2022/04/28 06:25:08;;;;;;;49.40;28.52;;;;;;;8.82;70.36;100139.09;5243381;28;20056;-67
2022/04/28 06:27:58;;;;;;;48.35;29.30;;;;;;;9.13;69.61;100136.03;5243764;28;20521;-67
2022/04/28 06:30:48;;;;;;;39.03;26.85;;;;;;;9.10;70.32;100146.81;5244097;28;20075;-67
2022/04/28 06:34:08;;;;;;;45.88;26.83;;;;;;;9.23;69.60;100148.63;5212052;28;20052;-67
2022/04/28 06:37:04;;;;;;;;;;;;;;;9.54;68.29;100152.63;5243769;28;20147;-67
2022/04/28 06:39:55;;;;;;;39.30;24.90;;;;;;;9.58;69.40;100154.94;5242969;28;20397;-67
2022/04/28 06:42:50;;;;;;;39.38;24.75;;;;;;;9.70;68.18;100161.16;5243023;28;20525;-67
2022/04/28 06:49:15;;;;;;;38.03;24.35;;;;;;;9.81;68.65;100148.00;5235581;28;20209;-68
2022/04/28 06:52:38;;;;;;;33.55;22.60;;;;;;;9.88;67.79;100153.69;5243729;28;20055;-67
2022/04/28 06:55:35;;;;;;;34.65;22.45;;;;;;;10.15;67.20;100153.47;5242684;28;20052;-67
2022/04/28 06:58:25;;;;;;;33.70;22.20;;;;;;;10.45;66.90;100152.19;5243450;28;20094;-68
2022/04/28 07:01:16;;;;;;;34.58;22.13;;;;;;;10.62;66.39;100159.72;5242520;28;20063;-67
2022/04/28 07:04:06;;;;;;;32.00;22.50;;;;;;;10.42;66.65;100121.44;5242805;28;20510;-67
2022/04/28 07:06:57;;;;;;;33.05;22.55;;;;;;;11.03;66.26;100155.75;5242854;28;20083;-67
2022/04/28 07:09:48;;;;;;;31.65;21.90;;;;;;;11.22;65.69;100158.63;5242614;28;20442;-67
2022/04/28 07:13:02;;;;;;;;;;;;;;;11.35;65.71;100155.88;5245376;28;20044;-67
2022/04/28 07:16:11;;;;;;;34.42;22.58;;;;;;;11.42;65.52;100153.59;5247559;28;19924;-67
2022/04/28 07:19:27;;;;;;;32.42;20.88;;;;;;;11.44;66.21;100156.97;5246806;28;20056;-67
2022/04/28 07:22:20;;;;;;;27.70;20.17;;;;;;;11.79;63.62;100158.63;5246338;28;20182;-67
2022/04/28 07:25:10;;;;;;;35.85;20.75;;;;;;;11.99;64.26;100161.41;5247701;28;20078;-67
2022/04/28 07:28:01;;;;;;;27.42;20.27;;;;;;;12.30;62.81;100145.59;5246681;28;20060;-67
2022/04/28 07:31:10;;;;;;;28.58;20.02;;;;;;;12.79;63.37;100167.28;5247372;28;20060;-68
2022/04/28 07:34:36;;;;;;;31.52;20.02;;;;;;;13.94;61.32;100150.19;5247337;28;20244;-67
2022/04/28 07:37:51;;;;;;;29.73;20.33;;;;;;;15.81;55.57;100167.53;5233445;28;20052;-68
2022/04/28 07:41:08;;;;;;;29.00;17.27;;;;;;;17.02;50.80;100162.66;5245939;28;20054;-68
2022/04/28 07:43:58;;;;;;;26.38;17.75;;;;;;;17.32;50.49;100164.88;5246322;28;20416;-68
2022/04/28 07:46:48;;;;;;;23.83;15.80;;;;;;;18.10;48.63;100161.22;5246346;28;20075;-68
2022/04/28 07:49:38;;;;;;;25.00;15.40;;;;;;;18.57;47.31;100157.91;5246572;28;20049;-68
2022/04/28 07:52:30;;;;;;;22.58;14.95;;;;;;;19.08;46.80;100163.16;5246407;28;20417;-68
2022/04/28 07:55:20;;;;;;;23.08;14.30;;;;;;;19.62;44.87;100164.19;5245870;28;20059;-68
2022/04/28 07:58:13;;;;;;;20.07;14.17;;;;;;;19.81;45.85;100159.44;5246309;28;20099;-68
2022/04/28 08:01:26;;;;;;;18.77;14.45;;;;;;;19.74;44.60;100150.41;5246680;28;20060;-68
2022/04/28 08:04:18;;;;;;;18.40;13.55;;;;;;;20.42;43.71;100157.72;5245877;28;20055;-68
2022/04/28 08:07:18;;;;;;;24.17;13.85;;;;;;;20.73;42.47;100167.63;5246022;28;20182;-68
2022/04/28 08:10:12;;;;;;;;;;;;;;;21.29;43.90;100165.41;5246257;28;20090;-68
2022/04/28 08:13:02;;;;;;;16.20;13.32;;;;;;;21.55;43.31;100170.38;5245796;28;19927;-68
2022/04/28 08:16:18;;;;;;;20.23;12.88;;;;;;;22.04;40.28;100169.78;5246536;28;20048;-68
2022/04/28 08:19:12;;;;;;;24.83;12.75;;;;;;;21.99;42.90;100159.56;5245924;28;20049;-68
2022/04/28 08:22:07;;;;;;;15.73;11.80;;;;;;;23.07;39.90;100173.13;5244852;28;20058;-69
2022/04/28 08:25:00;;;;;;;16.48;11.38;;;;;;;22.81;38.23;100152.91;5244577;28;20072;-68
2022/04/28 08:27:51;;;;;;;15.63;10.88;;;;;;;22.59;37.97;100167.50;5246960;28;20056;-67
2022/04/28 08:30:41;;;;;;;13.65;10.23;;;;;;;22.50;38.53;100166.78;5245533;28;20048;-69
2022/04/28 08:33:31;;;;;;;18.25;10.00;;;;;;;23.44;38.21;100164.66;5245856;28;20143;-68
2022/04/28 08:36:22;;;;;;;18.85;10.15;;;;;;;23.82;37.03;100164.25;5246975;28;20049;-68
2022/04/28 08:39:17;;;;;;;17.45;9.88;;;;;;;23.51;37.14;100143.06;5245696;28;20060;-68
2022/04/28 08:42:11;;;;;;;14.55;8.45;;;;;;;22.59;36.99;100165.63;5245423;28;20526;-68
2022/04/28 08:45:38;;;;;;;12.82;8.05;;;;;;;22.13;40.05;100163.25;5259938;28;20363;-68
2022/04/28 08:48:52;;;;;;;15.18;8.40;;;;;;;21.40;41.23;100148.81;5244699;28;20060;-68
2022/04/28 08:51:46;;;;;;;12.52;7.82;;;;;;;22.56;37.34;100144.41;5244846;28;20139;-68
2022/04/28 08:54:39;;;;;;;10.55;7.63;;;;;;;23.44;36.14;100151.13;5245159;28;20418;-68
2022/04/28 08:57:33;;;;;;;11.40;7.40;;;;;;;23.47;34.76;100147.16;5245180;28;20171;-68
2022/04/28 09:00:26;;;;;;;14.27;8.55;;;;;;;23.11;35.16;100156.34;5244789;28;20517;-68
2022/04/28 09:03:42;;;;;;;6.35;5.65;;;;;;;23.82;32.16;100149.88;5245661;28;20052;-68
2022/04/28 09:07:11;;;;;;;8.88;5.53;;;;;;;23.96;32.84;100157.03;5246215;28;20109;-68
2022/04/28 09:10:25;;;;;;;7.73;4.40;;;;;;;23.81;30.94;100154.47;5245724;28;20056;-68
2022/04/28 09:16:46;;;;;;;4.57;3.45;;;;;;;21.64;31.08;100163.88;5244668;28;20584;-68
2022/04/28 09:19:40;;;;;;;4.55;3.40;;;;;;;22.23;29.67;100125.16;5244411;28;20048;-68
2022/04/28 09:22:43;;;;;;;5.25;3.47;;;;;;;21.96;33.52;100161.81;5244326;28;20059;-68
2022/04/28 09:25:39;;;;;;;4.35;2.90;;;;;;;23.12;31.54;100139.06;5244163;28;20060;-68
2022/04/28 09:28:30;;;;;;;3.75;2.90;;;;;;;24.29;29.14;100150.88;5244314;28;20067;-68
2022/04/28 09:31:23;;;;;;;7.00;3.40;;;;;;;24.10;30.97;100152.47;5245022;28;20052;-68
2022/04/28 09:35:04;;;;;;;3.45;2.80;;;;;;;23.51;33.46;100145.75;5237547;28;20415;-68
2022/04/28 09:38:08;;;;;;;6.70;3.03;;;;;;;22.04;28.98;100143.59;5244231;28;20185;-68
2022/04/28 09:44:28;;;;;;;3.88;3.08;;;;;;;22.97;32.12;100147.25;5244355;28;20056;-68
2022/04/28 09:47:27;;;;;;;7.30;3.50;;;;;;;22.63;30.55;100141.75;5243912;28;20243;-68
2022/04/28 09:50:19;;;;;;;3.50;3.20;;;;;;;21.52;30.39;100147.34;5243717;28;20049;-68
2022/04/28 09:53:33;;;;;;;7.43;3.42;;;;;;;23.01;28.67;100126.06;5243915;28;20045;-68
2022/04/28 09:56:40;;;;;;;6.97;3.20;;;;;;;22.04;28.52;100149.00;5245020;28;20576;-68
2022/04/28 09:59:36;;;;;;;4.15;3.08;;;;;;;22.27;32.13;100132.66;5243896;28;20056;-68
2022/04/28 10:02:28;;;;;;;4.68;3.40;;;;;;;21.75;29.40;100132.88;5243411;28;20063;-68
2022/04/28 10:05:27;;;;;;;5.15;2.70;;;;;;;22.92;30.85;100132.63;5243608;28;20495;-68
2022/04/28 10:08:25;;;;;;;3.72;3.40;;;;;;;23.16;29.37;100129.50;5243351;28;20423;-68
2022/04/28 10:11:20;;;;;;;7.78;3.00;;;;;;;22.52;30.72;100130.44;5243196;28;20079;-68
2022/04/28 10:14:13;;;;;;;4.95;3.40;;;;;;;21.47;31.84;100133.56;5243262;28;20047;-68
2022/04/28 10:17:09;;;;;;;4.03;3.17;;;;;;;22.44;32.90;100140.53;5243526;28;20075;-68
2022/04/28 10:20:07;;;;;;;3.63;2.83;;;;;;;22.00;32.02;100136.09;5242733;28;20087;-68
2022/04/28 10:32:22;;;;;;;5.15;3.65;;;;;;;22.78;28.91;100136.25;5243368;28;20118;-68
2022/04/28 10:33:40;;;;;;;3.75;3.15;;;;;;;23.50;31.69;100135.94;5244333;28;20278;-68
2022/04/28 10:36:57;;;;;;;5.70;3.60;;;;;;;23.68;29.98;100125.47;5244098;28;20055;-68
2022/04/28 10:39:55;;;;;;;3.58;3.20;;;;;;;23.21;28.53;100121.66;5244062;28;20106;-68
2022/04/28 10:42:45;;;;;;;4.57;3.03;;;;;;;23.46;28.70;100121.16;5243974;28;20060;-68
2022/04/28 10:45:43;;;;;;;4.32;3.13;;;;;;;23.19;30.90;100122.88;5243845;28;20048;-68
2022/04/28 10:48:43;;;;;;;5.65;3.30;;;;;;;22.81;31.79;100125.88;5243226;28;20075;-68
2022/04/28 10:51:34;;;;;;;3.40;2.80;;;;;;;23.50;30.26;100127.81;5243577;28;20190;-68
2022/04/28 10:54:42;;;;;;;3.55;2.78;;;;;;;23.29;28.42;100126.06;5243946;28;20579;-68
2022/04/28 10:57:36;;;;;;;5.50;2.97;;;;;;;23.56;28.68;100123.50;5242712;28;20056;-68
2022/04/28 11:00:35;;;;;;;3.67;3.10;;;;;;;22.96;28.32;100106.91;5242543;28;20048;-68
2022/04/28 11:03:46;;;;;;;5.75;2.85;;;;;;;22.66;29.57;100109.75;5243038;28;20051;-68
2022/04/28 11:06:40;;;;;;;4.00;3.53;;;;;;;22.01;30.33;100116.16;5241915;28;20493;-68
2022/04/28 11:09:36;;;;;;;5.63;3.97;;;;;;;21.21;33.67;100120.50;5242657;28;20052;-68
2022/04/28 11:12:38;;;;;;;4.85;3.38;;;;;;;21.99;34.48;100132.56;5242053;28;20071;-68
2022/04/28 11:15:28;;;;;;;5.53;3.13;;;;;;;20.98;30.85;100117.03;5242276;28;20052;-68
2022/04/28 11:18:19;;;;;;;6.88;2.92;;;;;;;21.83;32.97;100135.47;5242616;28;20063;-68
2022/04/28 11:21:10;;;;;;;4.00;2.97;;;;;;;22.47;30.87;100119.34;5241330;28;20063;-68
2022/04/28 11:24:00;;;;;;;5.03;3.00;;;;;;;22.32;30.33;100126.72;5242223;28;20067;-68
2022/04/28 11:27:20;;;;;;;4.90;4.00;;;;;;;22.87;30.50;100129.69;5242747;28;20197;-68
2022/04/28 11:30:22;;;;;;;3.90;2.90;;;;;;;22.88;31.03;100129.50;5241014;28;20072;-68
2022/04/28 11:33:13;;;;;;;8.65;3.45;;;;;;;23.08;30.81;100118.84;5242092;28;20125;-68
2022/04/28 11:36:17;;;;;;;8.70;3.28;;;;;;;23.31;31.67;100123.13;5242198;28;20048;-68
2022/04/28 11:39:08;;;;;;;6.20;3.20;;;;;;;23.13;28.75;100118.25;5242312;28;20338;-68
2022/04/28 11:41:58;;;;;;;3.70;2.65;;;;;;;22.36;31.55;100119.88;5241892;28;20186;-68
2022/04/28 11:44:52;;;;;;;3.22;2.88;;;;;;;22.39;31.59;100106.00;5241480;28;20181;-68
2022/04/28 11:47:45;;;;;;;7.20;3.20;;;;;;;22.56;31.83;100113.84;5242153;28;20149;-68
2022/04/28 11:50:35;;;;;;;7.15;3.30;;;;;;;22.14;31.67;100100.09;5241712;28;20240;-68
2022/04/28 11:53:26;;;;;;;3.92;2.80;;;;;;;22.46;29.71;100106.88;5242349;28;20331;-68
2022/04/28 11:56:22;;;;;;;5.88;2.92;;;;;;;21.98;28.63;100113.81;5242338;28;20526;-68
2022/04/28 11:59:11;;;;;;;4.10;2.72;;;;;;;22.08;34.08;100097.31;5244160;28;20416;-68
2022/04/28 12:02:02;;;;;;;3.67;2.97;;;;;;;22.43;30.75;100096.44;5245522;28;20375;-68
2022/04/28 12:04:53;;;;;;;3.60;3.10;;;;;;;21.13;31.51;100099.03;5246078;28;20399;-67
2022/04/28 12:07:51;;;;;;;3.55;2.70;;;;;;;20.97;32.58;100109.97;5245960;28;20612;-68
2022/04/28 12:20:10;;;;;;;3.58;2.90;;;;;;;21.68;30.38;100107.66;5246254;28;20144;-67
2022/04/28 12:23:00;;;;;;;7.55;3.30;;;;;;;20.36;30.49;100096.47;5246647;28;20075;-68
2022/04/28 12:25:50;;;;;;;5.95;4.20;;;;;;;21.18;31.25;100096.59;5246482;28;20056;-68
2022/04/28 12:28:43;;;;;;;6.78;3.25;;;;;;;21.10;31.95;100094.00;5246655;28;20117;-67
2022/04/28 12:31:34;;;;;;;3.80;2.90;;;;;;;20.97;30.73;100093.78;5246371;28;20414;-67
2022/04/28 12:34:40;;;;;;;5.20;2.92;;;;;;;20.33;30.79;100086.06;5246019;28;20048;-68
2022/04/28 12:37:30;;;;;;;4.00;2.70;;;;;;;21.27;31.69;100092.78;5245305;28;20049;-68
2022/04/28 12:40:20;;;;;;;3.75;2.72;;;;;;;21.80;30.19;100093.50;5246083;28;20071;-68
2022/04/28 12:43:10;;;;;;;3.45;3.10;;;;;;;21.50;32.27;100087.31;5246057;28;20063;-68
2022/04/28 12:46:00;;;;;;;3.50;2.53;;;;;;;21.06;28.92;100093.53;5245956;28;20098;-68
2022/04/28 12:48:54;;;;;;;3.70;2.92;;;;;;;21.28;30.58;100082.81;5246083;28;20059;-68
2022/04/28 12:51:52;;;;;;;3.17;2.75;;;;;;;21.79;30.95;100086.44;5245901;28;20048;-68
2022/04/28 12:54:43;;;;;;;3.58;2.80;;;;;;;21.41;30.40;100084.91;5244852;28;20415;-68
2022/04/28 12:57:34;;;;;;;3.85;2.85;;;;;;;21.13;32.13;100084.69;5245745;28;20064;-68
2022/04/28 13:00:24;;;;;;;5.28;2.60;;;;;;;21.34;30.58;100076.69;5245763;28;20554;-68
2022/04/28 13:03:28;;;;;;;7.35;2.90;;;;;;;21.45;34.31;100076.22;5245822;28;20064;-68
2022/04/28 13:06:18;;;;;;;2.85;2.45;;;;;;;20.99;30.29;100070.16;5245098;28;20063;-68
2022/04/28 13:09:08;;;;;;;4.75;2.85;;;;;;;21.12;30.63;100059.56;5245763;28;20118;-68
2022/04/28 13:11:58;;;;;;;5.15;2.65;;;;;;;20.58;31.33;100052.56;5244961;28;20481;-68
2022/04/28 13:14:51;;;;;;;4.43;2.47;;;;;;;20.77;32.29;100053.06;5245335;28;20059;-68
2022/04/28 13:17:42;;;;;;;2.75;2.47;;;;;;;21.37;30.74;100043.13;5244831;28;20190;-67
2022/04/28 13:20:32;;;;;;;4.57;2.97;;;;;;;21.45;30.16;100053.81;5243322;28;20071;-68
2022/04/28 13:23:22;;;;;;;5.00;2.33;;;;;;;20.97;29.23;100046.09;5244465;28;20499;-68
2022/04/28 13:26:13;;;;;;;4.32;2.90;;;;;;;20.99;30.86;100051.28;5244049;28;20523;-68
2022/04/28 13:29:04;;;;;;;2.75;2.55;;;;;;;21.19;30.75;100048.88;5244109;28;20056;-68
2022/04/28 13:31:54;;;;;;;2.75;2.38;;;;;;;21.12;30.19;100048.78;5243794;28;20083;-68
2022/04/28 13:34:45;;;;;;;6.30;2.92;;;;;;;20.92;32.04;100048.50;5243605;28;20089;-68
2022/04/28 13:37:35;;;;;;;3.95;3.13;;;;;;;21.37;30.86;100040.44;5243854;28;20055;-68
2022/04/28 13:40:25;;;;;;;7.80;2.80;;;;;;;20.96;29.65;100033.66;5243491;28;20545;-68
2022/04/28 13:43:15;;;;;;;4.05;2.72;;;;;;;21.28;30.78;100035.09;5243649;28;20617;-68
2022/04/28 13:46:07;;;;;;;4.65;2.95;;;;;;;21.40;31.31;100035.50;5243614;28;20056;-68
2022/04/28 13:48:58;;;;;;;3.00;2.70;;;;;;;21.22;30.63;100010.75;5243343;28;20106;-68
2022/04/28 13:51:49;;;;;;;3.60;2.70;;;;;;;21.41;30.80;100014.75;5243293;28;20502;-68
2022/04/28 13:54:39;;;;;;;6.57;3.10;;;;;;;20.62;33.38;100021.53;5242185;28;20060;-68
2022/04/28 13:57:30;;;;;;;5.70;2.92;;;;;;;20.64;31.17;100027.56;5243105;28;20057;-68
2022/04/28 14:00:21;;;;;;;6.85;2.63;;;;;;;21.01;29.39;100012.34;5243468;28;20120;-68
2022/04/28 14:03:12;;;;;;;4.25;3.20;;;;;;;21.19;32.25;100016.50;5243578;28;20052;-68
2022/04/28 14:06:04;;;;;;;3.88;2.70;;;;;;;21.19;30.97;100006.59;5243156;28;20048;-68
2022/04/28 14:08:55;;;;;;;7.93;3.30;;;;;;;21.07;32.00;100003.50;5242678;28;20064;-67
2022/04/28 14:11:45;;;;;;;6.70;3.10;;;;;;;21.19;31.39;100011.97;5242717;28;20048;-68
2022/04/28 14:14:35;;;;;;;3.38;3.03;;;;;;;20.81;31.97;100008.53;5243010;28;20081;-68
2022/04/28 14:17:26;;;;;;;4.53;3.22;;;;;;;20.92;30.75;99991.88;5243518;28;20159;-68
2022/04/28 14:20:17;;;;;;;4.78;2.72;;;;;;;21.38;31.25;100005.16;5241197;28;20865;-68
2022/04/28 14:23:08;;;;;;;4.50;2.80;;;;;;;20.45;32.48;99997.59;5242375;28;20059;-68